Time;durP1;ratioP1;P1;durP2;ratioP2;P2;SDS_P1;SDS_P2;PMS_P1;PMS_P2;Temp;Humidity;BMP_temperature;BMP_pressure;BME280_temperature;BME280_humidity;BME280_pressure;Samples;Min_cycle;Max_cycle;Signal;HPM_P1;HPM_P2
2022/12/03 00:01:03;;;;;;;17.73;12.30;;;;;;;;;;6282489;22;20156;-71
2022/12/03 00:03:29;;;;;;;17.97;13.20;;;;;;;;;;6309661;22;20198;-70
2022/12/03 00:05:55;;;;;;;20.00;14.23;;;;;;;;;;6309274;22;20598;-70
2022/12/03 00:08:21;;;;;;;11.67;8.93;;;;;;;;;;6282312;22;20564;-69
2022/12/03 00:10:47;;;;;;;21.43;14.50;;;;;;;;;;6282038;22;20153;-69
2022/12/03 00:13:13;;;;;;;20.53;15.03;;;;;;;;;;6281937;22;20156;-69
2022/12/03 00:15:39;;;;;;;19.37;14.47;;;;;;;;;;6309368;22;20610;-70
2022/12/03 00:18:05;;;;;;;21.00;15.20;;;;;;;;;;6281670;22;20642;-71
2022/12/03 00:20:31;;;;;;;22.30;16.20;;;;;;;;;;6309778;22;20144;-73
2022/12/03 00:22:57;;;;;;;17.47;11.97;;;;;;;;;;6309211;22;20219;-73
2022/12/03 00:25:23;;;;;;;14.57;11.10;;;;;;;;;;6308677;22;20149;-73
2022/12/03 00:27:49;;;;;;;20.33;14.17;;;;;;;;;;6281128;22;20160;-72
2022/12/03 00:30:15;;;;;;;21.97;15.33;;;;;;;;;;6309574;22;20144;-73
2022/12/03 00:32:41;;;;;;;21.90;15.47;;;;;;;;;;6310097;22;20149;-71
2022/12/03 00:35:07;;;;;;;21.90;15.20;;;;;;;;;;6310602;22;20206;-69
2022/12/03 00:37:34;;;;;;;22.00;14.57;;;;;;;;;;6311034;22;20421;-72
2022/12/03 00:40:01;;;;;;;22.83;15.57;;;;;;;;;;6282544;22;20474;-71
2022/12/03 00:42:27;;;;;;;22.67;13.23;;;;;;;;;;6309201;22;20454;-72
2022/12/03 00:44:53;;;;;;;22.70;16.27;;;;;;;;;;6310066;22;20367;-71
2022/12/03 00:47:19;;;;;;;17.87;12.40;;;;;;;;;;6283999;22;20152;-71
2022/12/03 00:49:45;;;;;;;22.40;16.97;;;;;;;;;;6310579;22;20393;-74
2022/12/03 00:52:11;;;;;;;27.27;18.00;;;;;;;;;;6312168;22;20579;-71
2022/12/03 00:54:37;;;;;;;24.37;17.63;;;;;;;;;;6311822;22;20547;-71
2022/12/03 00:57:03;;;;;;;24.50;16.43;;;;;;;;;;6311637;22;20507;-71
2022/12/03 00:59:28;;;;;;;24.77;17.70;;;;;;;;;;6310816;22;20233;-71
2022/12/03 01:01:54;;;;;;;22.83;17.70;;;;;;;;;;6283835;22;20153;-71
2022/12/03 01:04:20;;;;;;;22.13;16.57;;;;;;;;;;6310942;22;20155;-71
2022/12/03 01:06:46;;;;;;;20.80;15.37;;;;;;;;;;6311886;22;20149;-72
2022/12/03 01:09:12;;;;;;;15.37;9.40;;;;;;;;;;6283060;22;20522;-72
2022/12/03 01:11:40;;;;;;;22.87;16.70;;;;;;;;;;6311030;22;20231;-71
2022/12/03 01:14:06;;;;;;;22.80;15.47;;;;;;;;;;6311290;22;20833;-71
2022/12/03 01:16:32;;;;;;;25.97;16.57;;;;;;;;;;6310261;22;20368;-73
2022/12/03 01:18:58;;;;;;;22.70;16.03;;;;;;;;;;6310580;22;20383;-72
2022/12/03 01:21:24;;;;;;;21.10;14.07;;;;;;;;;;6310897;22;20636;-71
2022/12/03 01:23:50;;;;;;;23.37;16.50;;;;;;;;;;6310801;22;20149;-72
2022/12/03 01:26:16;;;;;;;20.80;13.37;;;;;;;;;;6310795;22;20144;-71
2022/12/03 01:28:42;;;;;;;25.70;17.50;;;;;;;;;;6310319;22;20188;-70
2022/12/03 01:33:53;;;;;;;20.53;14.07;;;;;;;;;;6309599;22;20351;-69
2022/12/03 01:36:19;;;;;;;19.37;15.00;;;;;;;;;;6310104;22;20370;-67
2022/12/03 01:38:45;;;;;;;23.60;15.73;;;;;;;;;;6309313;22;20442;-70
2022/12/03 01:41:11;;;;;;;23.47;17.27;;;;;;;;;;6281864;22;20182;-70
2022/12/03 01:43:37;;;;;;;21.33;15.30;;;;;;;;;;6309658;22;20502;-67
2022/12/03 01:46:03;;;;;;;21.53;13.90;;;;;;;;;;6309251;22;20197;-68
2022/12/03 01:48:31;;;;;;;22.63;16.92;;;;;;;;;;6308189;22;20763;-67
2022/12/03 01:50:57;;;;;;;18.97;13.97;;;;;;;;;;6282250;22;20180;-68
2022/12/03 01:53:23;;;;;;;20.37;12.37;;;;;;;;;;6284249;22;20459;-67
2022/12/03 01:55:49;;;;;;;23.17;17.03;;;;;;;;;;6309594;22;20157;-67
2022/12/03 01:58:15;;;;;;;18.50;12.97;;;;;;;;;;6309160;22;20221;-69
2022/12/03 02:00:41;;;;;;;19.33;11.00;;;;;;;;;;6281802;22;20180;-70
2022/12/03 02:03:11;;;;;;;24.87;17.50;;;;;;;;;;6281913;22;20394;-70
2022/12/03 02:05:37;;;;;;;23.73;15.07;;;;;;;;;;6281768;22;20153;-68
2022/12/03 02:08:42;;;;;;;18.87;13.10;;;;;;;;;;6309300;22;20442;-68
2022/12/03 02:11:16;;;;;;;19.10;12.73;;;;;;;;;;6184609;23;20436;-70
2022/12/03 02:13:42;;;;;;;21.73;14.70;;;;;;;;;;6159716;23;20413;-69
2022/12/03 02:16:08;;;;;;;15.27;10.33;;;;;;;;;;6251112;22;20462;-67
2022/12/03 02:18:34;;;;;;;22.70;15.90;;;;;;;;;;6309238;22;20410;-68
2022/12/03 02:21:03;;;;;;;20.07;12.17;;;;;;;;;;6281635;22;20405;-68
2022/12/03 02:23:33;;;;;;;16.80;10.87;;;;;;;;;;6310329;22;20395;-68
2022/12/03 02:25:59;;;;;;;21.50;14.30;;;;;;;;;;6282424;22;20383;-68
2022/12/03 02:28:25;;;;;;;19.93;14.33;;;;;;;;;;6282733;22;20398;-70
2022/12/03 02:30:51;;;;;;;23.93;17.00;;;;;;;;;;6281762;22;20668;-67
2022/12/03 02:33:17;;;;;;;24.83;18.07;;;;;;;;;;6281984;22;20161;-68
2022/12/03 02:35:44;;;;;;;24.60;18.33;;;;;;;;;;6281795;22;20183;-68
2022/12/03 02:38:13;;;;;;;18.27;12.17;;;;;;;;;;6308867;22;20172;-68
2022/12/03 02:40:39;;;;;;;27.93;17.10;;;;;;;;;;6309454;22;20414;-68
2022/12/03 02:43:05;;;;;;;21.63;15.10;;;;;;;;;;6311701;22;20374;-68
2022/12/03 02:45:42;;;;;;;23.83;17.87;;;;;;;;;;6281408;22;20282;-67
2022/12/03 02:48:16;;;;;;;24.70;17.13;;;;;;;;;;6281917;22;20710;-68
2022/12/03 02:50:45;;;;;;;22.07;14.60;;;;;;;;;;6308930;22;20731;-67
2022/12/03 02:53:19;;;;;;;22.50;14.83;;;;;;;;;;6309263;22;20363;-68
2022/12/03 02:55:45;;;;;;;25.43;17.07;;;;;;;;;;6282196;22;20466;-70
2022/12/03 02:58:11;;;;;;;25.80;16.77;;;;;;;;;;6310014;22;20794;-68
2022/12/03 03:00:38;;;;;;;28.30;17.67;;;;;;;;;;6288734;22;20403;-68
2022/12/03 03:03:05;;;;;;;26.10;18.70;;;;;;;;;;6316964;22;20375;-68
2022/12/03 03:05:32;;;;;;;20.37;14.27;;;;;;;;;;6317756;22;20754;-68
2022/12/03 03:07:58;;;;;;;26.23;15.87;;;;;;;;;;6316528;22;20847;-67
2022/12/03 03:10:24;;;;;;;24.07;12.63;;;;;;;;;;6317656;22;20387;-67
2022/12/03 03:12:52;;;;;;;26.57;15.17;;;;;;;;;;6311497;22;20399;-67
2022/12/03 03:15:18;;;;;;;22.60;16.23;;;;;;;;;;6282121;22;20390;-68
2022/12/03 03:17:44;;;;;;;26.93;18.37;;;;;;;;;;6281551;22;20428;-67
2022/12/03 03:20:10;;;;;;;25.30;14.87;;;;;;;;;;6281379;22;20235;-68
2022/12/03 03:22:38;;;;;;;23.43;16.43;;;;;;;;;;6281383;22;20187;-67
2022/12/03 03:25:04;;;;;;;30.47;20.67;;;;;;;;;;6308707;22;20359;-68
2022/12/03 03:27:30;;;;;;;24.00;16.50;;;;;;;;;;6308348;22;20375;-68
2022/12/03 03:29:57;;;;;;;29.73;20.07;;;;;;;;;;6281004;22;20383;-68
2022/12/03 03:32:24;;;;;;;30.07;20.10;;;;;;;;;;6285027;22;20395;-68
2022/12/03 03:34:50;;;;;;;29.17;20.10;;;;;;;;;;6310085;22;20374;-68
2022/12/03 03:37:16;;;;;;;30.50;19.53;;;;;;;;;;6308658;22;20415;-68
2022/12/03 03:39:42;;;;;;;26.70;18.37;;;;;;;;;;6288789;22;20221;-68
2022/12/03 03:42:08;;;;;;;28.00;19.20;;;;;;;;;;6317258;22;20764;-68
2022/12/03 03:44:34;;;;;;;28.67;19.57;;;;;;;;;;6319784;22;20167;-67
2022/12/03 03:47:00;;;;;;;21.53;12.73;;;;;;;;;;6320861;22;20375;-68
2022/12/03 03:49:27;;;;;;;28.43;17.10;;;;;;;;;;6313294;22;20367;-68
2022/12/03 03:51:53;;;;;;;26.83;17.80;;;;;;;;;;6308764;22;20387;-68
2022/12/03 03:54:19;;;;;;;25.93;17.23;;;;;;;;;;6281739;22;20371;-68
2022/12/03 03:56:44;;;;;;;26.47;15.63;;;;;;;;;;6308071;22;20378;-67
2022/12/03 03:59:12;;;;;;;26.73;17.97;;;;;;;;;;6280761;22;20149;-68
2022/12/03 04:01:38;;;;;;;31.93;20.57;;;;;;;;;;6280602;22;20267;-68
2022/12/03 04:04:05;;;;;;;28.57;18.40;;;;;;;;;;6308445;22;20367;-68
2022/12/03 04:06:30;;;;;;;23.60;15.30;;;;;;;;;;6307893;22;20363;-68
2022/12/03 04:08:56;;;;;;;22.57;13.93;;;;;;;;;;6280606;22;20422;-68
2022/12/03 04:14:07;;;;;;;23.33;14.53;;;;;;;;;;6308532;22;20224;-68
2022/12/03 04:16:33;;;;;;;23.50;11.77;;;;;;;;;;6280573;22;20379;-68
2022/12/03 04:18:59;;;;;;;35.23;21.00;;;;;;;;;;6280873;22;20157;-67
2022/12/03 04:24:10;;;;;;;27.93;17.70;;;;;;;;;;6310605;22;20159;-67
2022/12/03 04:29:21;;;;;;;31.80;19.90;;;;;;;;;;6310760;22;20363;-67
2022/12/03 04:37:16;;;;;;;25.67;13.00;;;;;;;;;;6310739;22;20484;-67
2022/12/03 04:39:42;;;;;;;31.27;18.73;;;;;;;;;;6284571;22;20431;-69
2022/12/03 04:42:08;;;;;;;34.20;19.23;;;;;;;;;;6313521;22;20387;-67
2022/12/03 04:44:35;;;;;;;28.47;16.40;;;;;;;;;;6329064;22;20167;-67
2022/12/03 04:47:17;;;;;;;28.67;16.57;;;;;;;;;;6330577;22;20393;-68
2022/12/03 04:49:44;;;;;;;35.80;21.37;;;;;;;;;;6329047;22;20371;-68
2022/12/03 04:52:10;;;;;;;37.33;21.60;;;;;;;;;;6322074;22;20391;-67
2022/12/03 04:54:37;;;;;;;34.40;19.77;;;;;;;;;;6317771;22;20426;-67
2022/12/03 04:57:03;;;;;;;36.07;19.87;;;;;;;;;;6288748;22;20468;-67
2022/12/03 04:59:30;;;;;;;24.50;15.53;;;;;;;;;;6313090;22;20367;-69
2022/12/03 05:01:56;;;;;;;34.57;18.20;;;;;;;;;;6312851;22;20417;-68
2022/12/03 05:04:22;;;;;;;32.23;18.13;;;;;;;;;;6312624;22;20446;-67
2022/12/03 05:06:48;;;;;;;26.97;16.23;;;;;;;;;;6313184;22;20148;-68
2022/12/03 05:09:14;;;;;;;26.23;13.57;;;;;;;;;;6313938;22;20367;-68
2022/12/03 05:11:40;;;;;;;39.13;21.57;;;;;;;;;;6286716;22;20777;-67
2022/12/03 05:14:06;;;;;;;35.70;20.63;;;;;;;;;;6312792;22;20526;-68
2022/12/03 05:16:32;;;;;;;27.03;13.93;;;;;;;;;;6285631;22;20390;-68
2022/12/03 05:18:58;;;;;;;26.83;16.07;;;;;;;;;;6284821;22;20184;-68
2022/12/03 05:21:24;;;;;;;28.20;14.17;;;;;;;;;;6283772;22;20178;-68
2022/12/03 05:23:50;;;;;;;27.53;13.73;;;;;;;;;;6283490;22;20155;-68
2022/12/03 05:26:16;;;;;;;24.23;12.87;;;;;;;;;;6311638;22;20197;-69
2022/12/03 05:28:42;;;;;;;32.70;16.57;;;;;;;;;;6310940;22;20201;-68
2022/12/03 05:31:08;;;;;;;34.13;18.20;;;;;;;;;;6311106;22;20415;-68
2022/12/03 05:33:34;;;;;;;28.17;14.70;;;;;;;;;;6310443;22;20227;-67
2022/12/03 05:36:00;;;;;;;26.93;13.40;;;;;;;;;;6310725;22;20371;-67
2022/12/03 05:38:26;;;;;;;30.17;17.10;;;;;;;;;;6310570;22;20179;-68
2022/12/03 05:40:52;;;;;;;33.03;19.30;;;;;;;;;;6310746;22;20175;-68
2022/12/03 05:43:18;;;;;;;32.20;16.83;;;;;;;;;;6310238;22;20773;-67
2022/12/03 05:45:44;;;;;;;36.73;19.67;;;;;;;;;;6282762;22;20380;-68
2022/12/03 05:48:12;;;;;;;34.73;21.60;;;;;;;;;;6282227;22;20243;-70
2022/12/03 05:50:38;;;;;;;31.07;17.00;;;;;;;;;;6311123;22;20387;-69
2022/12/03 05:53:05;;;;;;;38.90;20.20;;;;;;;;;;6309676;22;20379;-68
2022/12/03 05:55:31;;;;;;;25.27;12.57;;;;;;;;;;6310391;22;20402;-70
2022/12/03 05:57:57;;;;;;;38.57;22.20;;;;;;;;;;6309171;22;20959;-70
2022/12/03 06:00:24;;;;;;;37.20;16.80;;;;;;;;;;6312720;22;20409;-68
2022/12/03 06:02:50;;;;;;;25.90;14.97;;;;;;;;;;6282993;22;20152;-68
2022/12/03 06:05:18;;;;;;;35.47;19.20;;;;;;;;;;6310211;22;20363;-69
2022/12/03 06:07:44;;;;;;;43.33;21.03;;;;;;;;;;6282030;22;20864;-70
2022/12/03 06:10:11;;;;;;;39.60;21.23;;;;;;;;;;6281862;22;20384;-69
2022/12/03 06:12:37;;;;;;;41.50;22.37;;;;;;;;;;6281609;22;20379;-70
2022/12/03 06:15:03;;;;;;;35.73;20.13;;;;;;;;;;6281616;22;20728;-70
2022/12/03 06:17:29;;;;;;;39.73;21.83;;;;;;;;;;6309045;22;20168;-70
2022/12/03 06:19:55;;;;;;;36.50;16.10;;;;;;;;;;6309550;22;20826;-70
2022/12/03 06:22:21;;;;;;;40.17;20.10;;;;;;;;;;6308898;22;20552;-70
2022/12/03 06:24:47;;;;;;;40.03;21.83;;;;;;;;;;6281551;22;20156;-69
2022/12/03 06:27:13;;;;;;;43.80;23.30;;;;;;;;;;6281596;22;20188;-70
2022/12/03 06:29:39;;;;;;;38.67;19.77;;;;;;;;;;6309002;22;20363;-70
2022/12/03 06:32:05;;;;;;;37.20;19.23;;;;;;;;;;6308853;22;20195;-70
2022/12/03 06:34:31;;;;;;;32.28;18.73;;;;;;;;;;6281612;22;20384;-68
2022/12/03 06:36:57;;;;;;;31.67;15.73;;;;;;;;;;6311572;22;20148;-68
2022/12/03 06:39:23;;;;;;;32.53;17.30;;;;;;;;;;6311274;22;20148;-70
2022/12/03 06:41:49;;;;;;;35.00;18.70;;;;;;;;;;6312178;22;20633;-68
2022/12/03 06:44:15;;;;;;;35.80;18.33;;;;;;;;;;6310746;22;20442;-68
2022/12/03 06:46:41;;;;;;;31.10;17.53;;;;;;;;;;6285015;22;20153;-68
2022/12/03 06:49:08;;;;;;;35.97;17.70;;;;;;;;;;6285332;22;20483;-68
2022/12/03 06:51:34;;;;;;;40.20;20.73;;;;;;;;;;6311395;22;20648;-68
2022/12/03 06:54:00;;;;;;;36.57;18.53;;;;;;;;;;6311722;22;20374;-68
2022/12/03 06:56:26;;;;;;;32.97;17.83;;;;;;;;;;6285934;22;20374;-68
2022/12/03 06:58:52;;;;;;;32.80;16.67;;;;;;;;;;6283418;22;20251;-68
2022/12/03 07:01:18;;;;;;;37.13;20.67;;;;;;;;;;6312018;22;20727;-68
2022/12/03 07:03:44;;;;;;;29.07;12.33;;;;;;;;;;6314684;22;20378;-68
2022/12/03 07:06:10;;;;;;;38.87;21.77;;;;;;;;;;6284450;22;20541;-68
2022/12/03 07:08:36;;;;;;;34.70;18.70;;;;;;;;;;6281709;22;20503;-68
2022/12/03 07:11:02;;;;;;;27.50;13.03;;;;;;;;;;6280726;22;20657;-68
2022/12/03 07:13:28;;;;;;;38.27;21.67;;;;;;;;;;6308629;22;20617;-69
2022/12/03 07:15:53;;;;;;;36.90;20.60;;;;;;;;;;6308511;22;20371;-68
2022/12/03 07:18:19;;;;;;;35.37;18.90;;;;;;;;;;6308616;22;20263;-68
2022/12/03 07:20:45;;;;;;;34.13;20.07;;;;;;;;;;6308319;22;20169;-68
2022/12/03 07:23:11;;;;;;;31.23;13.93;;;;;;;;;;6280915;22;20380;-68
2022/12/03 07:25:37;;;;;;;32.43;16.67;;;;;;;;;;6280814;22;20175;-68
2022/12/03 07:28:03;;;;;;;35.07;19.27;;;;;;;;;;6280796;22;20232;-69
2022/12/03 07:30:29;;;;;;;28.37;14.93;;;;;;;;;;6308104;22;20185;-68
2022/12/03 07:32:55;;;;;;;27.03;15.17;;;;;;;;;;6308585;22;20435;-68
2022/12/03 07:35:21;;;;;;;22.83;11.90;;;;;;;;;;6308123;22;20155;-68
2022/12/03 07:37:47;;;;;;;32.53;18.00;;;;;;;;;;6281131;22;20181;-68
2022/12/03 07:40:17;;;;;;;31.97;18.33;;;;;;;;;;6283155;22;20172;-67
2022/12/03 07:42:43;;;;;;;28.70;17.73;;;;;;;;;;6275724;22;20205;-71
2022/12/03 07:45:09;;;;;;;35.20;20.53;;;;;;;;;;6275223;22;20723;-70
2022/12/03 07:47:35;;;;;;;32.47;18.43;;;;;;;;;;6275027;22;20158;-70
2022/12/03 07:50:01;;;;;;;22.30;12.60;;;;;;;;;;6276850;22;20383;-71
2022/12/03 07:52:27;;;;;;;29.80;17.07;;;;;;;;;;6275078;22;20173;-70
2022/12/03 07:54:53;;;;;;;24.60;12.73;;;;;;;;;;6274716;22;20161;-70
2022/12/03 07:57:19;;;;;;;30.30;18.67;;;;;;;;;;6276738;22;20211;-70
2022/12/03 07:59:45;;;;;;;31.93;15.47;;;;;;;;;;6275339;22;20246;-70
2022/12/03 08:02:11;;;;;;;34.23;19.13;;;;;;;;;;6277413;22;20166;-70
2022/12/03 08:04:37;;;;;;;32.40;16.40;;;;;;;;;;6276800;22;20367;-70
2022/12/03 08:07:03;;;;;;;30.63;15.97;;;;;;;;;;6277269;22;20232;-70
2022/12/03 08:09:30;;;;;;;36.23;19.33;;;;;;;;;;6275297;22;20157;-71
2022/12/03 08:11:59;;;;;;;29.17;17.60;;;;;;;;;;6276717;22;20218;-70
2022/12/03 08:14:25;;;;;;;32.87;18.70;;;;;;;;;;6275181;22;20399;-70
2022/12/03 08:16:51;;;;;;;23.13;13.73;;;;;;;;;;6275184;22;20380;-72
2022/12/03 08:19:17;;;;;;;28.13;16.97;;;;;;;;;;6276961;22;20156;-69
2022/12/03 08:21:43;;;;;;;30.43;16.73;;;;;;;;;;6276856;22;20175;-70
2022/12/03 08:24:14;;;;;;;28.30;16.50;;;;;;;;;;6275643;22;20691;-72
2022/12/03 08:26:40;;;;;;;25.97;13.10;;;;;;;;;;6277262;22;20681;-70
2022/12/03 08:29:19;;;;;;;22.53;13.03;;;;;;;;;;6276985;22;20379;-70
2022/12/03 08:31:47;;;;;;;33.77;17.33;;;;;;;;;;6276708;22;20424;-70
2022/12/03 08:34:25;;;;;;;27.33;14.37;;;;;;;;;;6276701;22;20377;-71
2022/12/03 08:36:56;;;;;;;31.57;17.93;;;;;;;;;;6278471;22;20368;-73
2022/12/03 08:39:38;;;;;;;28.23;14.30;;;;;;;;;;6277305;22;20773;-71
2022/12/03 08:44:48;;;;;;;39.83;19.00;;;;;;;;;;6276754;22;20394;-71
2022/12/03 08:47:22;;;;;;;31.00;16.90;;;;;;;;;;6276737;22;20363;-72
2022/12/03 08:49:58;;;;;;;29.83;15.83;;;;;;;;;;6276853;22;20220;-71
2022/12/03 08:52:31;;;;;;;31.27;17.43;;;;;;;;;;6274869;22;20434;-70
2022/12/03 08:54:57;;;;;;;31.17;18.50;;;;;;;;;;6275170;22;20395;-71
2022/12/03 08:57:28;;;;;;;34.60;20.53;;;;;;;;;;6276590;22;20411;-71
2022/12/03 08:59:57;;;;;;;34.60;19.30;;;;;;;;;;6275829;22;20161;-71
2022/12/03 09:02:31;;;;;;;27.70;16.00;;;;;;;;;;6276548;22;20383;-71
2022/12/03 09:04:57;;;;;;;26.53;13.77;;;;;;;;;;6275034;22;20380;-71
2022/12/03 09:07:23;;;;;;;28.63;17.50;;;;;;;;;;6277566;22;20902;-71
2022/12/03 09:09:49;;;;;;;28.93;18.50;;;;;;;;;;6277139;22;20207;-71
2022/12/03 09:12:15;;;;;;;24.37;15.10;;;;;;;;;;6279675;22;20185;-71
2022/12/03 09:14:41;;;;;;;26.33;17.30;;;;;;;;;;6278587;22;20372;-71
2022/12/03 09:17:07;;;;;;;29.47;16.43;;;;;;;;;;6277352;22;20509;-71
2022/12/03 09:19:33;;;;;;;28.93;17.60;;;;;;;;;;6278871;22;20145;-73
2022/12/03 09:21:59;;;;;;;26.13;14.27;;;;;;;;;;6278726;22;20226;-72
2022/12/03 09:24:25;;;;;;;26.33;16.90;;;;;;;;;;6278965;22;20146;-72
2022/12/03 09:26:51;;;;;;;26.37;16.17;;;;;;;;;;6279469;22;20195;-71
2022/12/03 09:29:17;;;;;;;24.40;14.23;;;;;;;;;;6278483;22;20149;-72
2022/12/03 09:31:43;;;;;;;28.50;16.50;;;;;;;;;;6276762;22;20299;-72
2022/12/03 09:34:09;;;;;;;31.20;19.97;;;;;;;;;;6278368;22;20157;-71
2022/12/03 09:36:35;;;;;;;20.90;12.20;;;;;;;;;;6276626;22;20157;-71
2022/12/03 09:39:01;;;;;;;26.10;15.97;;;;;;;;;;6280428;22;20725;-71
2022/12/03 09:41:27;;;;;;;29.57;15.77;;;;;;;;;;6276431;22;20238;-71
2022/12/03 09:43:53;;;;;;;26.60;16.47;;;;;;;;;;6278433;22;20216;-71
2022/12/03 09:46:20;;;;;;;33.00;19.50;;;;;;;;;;6276558;22;20387;-71
2022/12/03 09:48:46;;;;;;;18.17;10.60;;;;;;;;;;6276498;22;20380;-71
2022/12/03 09:51:12;;;;;;;26.97;14.73;;;;;;;;;;6276148;22;20972;-71
2022/12/03 09:53:38;;;;;;;22.83;12.20;;;;;;;;;;6278005;22;20164;-73
2022/12/03 09:56:04;;;;;;;30.67;16.57;;;;;;;;;;6277788;22;20846;-72
2022/12/03 09:58:31;;;;;;;27.57;15.20;;;;;;;;;;6277955;22;20451;-72
2022/12/03 10:00:57;;;;;;;31.53;18.30;;;;;;;;;;6276556;22;20404;-72
2022/12/03 10:03:24;;;;;;;23.47;13.43;;;;;;;;;;6276187;22;20386;-73
2022/12/03 10:05:51;;;;;;;38.00;22.27;;;;;;;;;;6278011;22;20379;-72
2022/12/03 10:08:20;;;;;;;31.43;16.37;;;;;;;;;;6277089;22;20387;-71
2022/12/03 10:10:47;;;;;;;30.77;15.87;;;;;;;;;;6276665;22;20431;-70
2022/12/03 10:13:18;;;;;;;31.97;18.13;;;;;;;;;;6278773;22;20368;-72
2022/12/03 10:15:44;;;;;;;34.10;20.40;;;;;;;;;;6278021;22;20429;-72
2022/12/03 10:18:17;;;;;;;32.00;18.50;;;;;;;;;;6278694;22;20416;-72
2022/12/03 10:20:43;;;;;;;31.23;15.80;;;;;;;;;;6276576;22;20376;-72
2022/12/03 10:23:09;;;;;;;29.40;18.10;;;;;;;;;;6277784;22;20368;-72
2022/12/03 10:25:48;;;;;;;36.47;19.87;;;;;;;;;;6278492;22;20477;-72
2022/12/03 10:28:26;;;;;;;23.57;13.30;;;;;;;;;;6278692;22;20148;-72
2022/12/03 10:30:55;;;;;;;33.00;20.77;;;;;;;;;;6279022;22;20391;-72
2022/12/03 10:33:21;;;;;;;35.80;20.90;;;;;;;;;;6278440;22;20421;-70
2022/12/03 10:35:47;;;;;;;32.10;16.87;;;;;;;;;;6276247;22;20470;-72
2022/12/03 10:38:16;;;;;;;30.90;17.43;;;;;;;;;;6276423;22;20188;-70
2022/12/03 10:40:42;;;;;;;32.37;18.30;;;;;;;;;;6279611;22;20380;-73
2022/12/03 10:43:22;;;;;;;33.93;20.63;;;;;;;;;;6281163;22;20364;-69
2022/12/03 10:45:49;;;;;;;27.03;13.90;;;;;;;;;;6308559;22;20240;-72
2022/12/03 10:48:17;;;;;;;32.70;17.23;;;;;;;;;;6281216;22;20374;-72
2022/12/03 10:50:51;;;;;;;27.73;15.97;;;;;;;;;;6281324;22;20395;-72
2022/12/03 10:53:17;;;;;;;30.77;16.47;;;;;;;;;;6282078;22;20379;-72
2022/12/03 10:55:44;;;;;;;32.77;19.77;;;;;;;;;;6309120;22;20375;-73
2022/12/03 10:58:30;;;;;;;32.50;18.63;;;;;;;;;;6281218;22;20429;-72
2022/12/03 11:00:57;;;;;;;34.13;20.83;;;;;;;;;;6307787;22;20422;-72
2022/12/03 11:03:25;;;;;;;32.97;17.43;;;;;;;;;;6308350;22;20374;-72
2022/12/03 11:05:52;;;;;;;28.97;12.67;;;;;;;;;;6308482;22;20363;-72
2022/12/03 11:08:22;;;;;;;33.43;17.80;;;;;;;;;;6280753;22;20386;-72
2022/12/03 11:10:57;;;;;;;35.80;20.83;;;;;;;;;;6308674;22;20391;-73
2022/12/03 11:13:32;;;;;;;35.53;19.40;;;;;;;;;;6308637;22;20394;-72
2022/12/03 11:15:58;;;;;;;35.10;19.03;;;;;;;;;;6281053;22;20374;-72
2022/12/03 11:18:36;;;;;;;35.10;20.77;;;;;;;;;;6308062;22;20415;-71
2022/12/03 11:21:05;;;;;;;28.27;15.73;;;;;;;;;;6308129;22;20383;-71
2022/12/03 11:23:58;;;;;;;34.00;20.03;;;;;;;;;;6308122;22;20366;-72
2022/12/03 11:26:30;;;;;;;33.30;20.00;;;;;;;;;;6276567;22;20406;-72
2022/12/03 11:28:56;;;;;;;31.00;19.87;;;;;;;;;;6308245;22;20367;-71
2022/12/03 11:31:35;;;;;;;28.23;14.70;;;;;;;;;;6280592;22;20803;-72
2022/12/03 11:34:16;;;;;;;32.70;17.53;;;;;;;;;;6309022;22;20375;-72
2022/12/03 11:37:01;;;;;;;26.23;16.67;;;;;;;;;;6309168;22;20375;-72
2022/12/03 11:39:45;;;;;;;34.77;20.63;;;;;;;;;;6309004;22;20716;-72
2022/12/03 11:42:26;;;;;;;35.23;21.27;;;;;;;;;;6280567;22;20421;-71
2022/12/03 11:45:04;;;;;;;39.20;20.50;;;;;;;;;;6308636;22;20348;-71
2022/12/03 11:47:31;;;;;;;30.10;17.03;;;;;;;;;;6308989;22;20466;-71
2022/12/03 11:49:57;;;;;;;32.40;19.20;;;;;;;;;;6310449;22;20371;-72
2022/12/03 11:52:25;;;;;;;43.43;23.60;;;;;;;;;;6280830;22;20395;-72
2022/12/03 11:54:53;;;;;;;35.93;20.97;;;;;;;;;;6308708;22;20855;-71
2022/12/03 11:57:25;;;;;;;39.10;23.93;;;;;;;;;;6308680;22;20418;-72
2022/12/03 12:00:03;;;;;;;26.67;15.97;;;;;;;;;;6281563;22;20462;-71
2022/12/03 12:02:29;;;;;;;40.53;24.13;;;;;;;;;;6280967;22;20398;-71
2022/12/03 12:04:55;;;;;;;42.70;24.73;;;;;;;;;;6280906;22;20399;-72
2022/12/03 12:07:36;;;;;;;31.53;17.30;;;;;;;;;;6308619;22;20153;-72
2022/12/03 12:10:03;;;;;;;38.50;23.10;;;;;;;;;;6281757;22;20167;-71
2022/12/03 12:12:40;;;;;;;40.20;25.67;;;;;;;;;;6280509;22;20395;-72
2022/12/03 12:15:35;;;;;;;40.20;20.67;;;;;;;;;;6308279;22;20836;-71
2022/12/03 12:18:19;;;;;;;39.37;24.20;;;;;;;;;;6282016;22;20508;-71
2022/12/03 12:20:45;;;;;;;34.57;18.50;;;;;;;;;;6280374;22;20176;-72
2022/12/03 12:23:22;;;;;;;31.63;17.30;;;;;;;;;;6280395;22;20418;-71
2022/12/03 12:25:48;;;;;;;37.90;23.00;;;;;;;;;;6281642;22;20202;-73
2022/12/03 12:28:13;;;;;;;32.77;19.23;;;;;;;;;;6280381;22;20379;-72
2022/12/03 12:30:39;;;;;;;37.13;21.23;;;;;;;;;;6308162;22;20159;-71
2022/12/03 12:33:22;;;;;;;31.53;19.40;;;;;;;;;;6250748;22;20177;-71
2022/12/03 12:35:48;;;;;;;33.77;21.43;;;;;;;;;;6307667;22;20386;-72
2022/12/03 12:38:18;;;;;;;30.63;18.97;;;;;;;;;;6280265;22;20504;-70
2022/12/03 12:40:47;;;;;;;33.83;20.07;;;;;;;;;;6307698;22;20363;-72
2022/12/03 12:43:27;;;;;;;36.93;20.73;;;;;;;;;;6310292;22;20348;-72
2022/12/03 12:45:54;;;;;;;32.47;18.23;;;;;;;;;;6284134;22;20446;-72
2022/12/03 12:48:25;;;;;;;25.27;15.13;;;;;;;;;;6283338;22;20378;-71
2022/12/03 12:50:57;;;;;;;29.57;18.73;;;;;;;;;;6310654;22;20387;-72
2022/12/03 12:53:26;;;;;;;34.47;20.77;;;;;;;;;;6309913;22;20381;-72
2022/12/03 12:56:07;;;;;;;35.07;18.90;;;;;;;;;;6309480;22;20390;-72
2022/12/03 12:58:33;;;;;;;36.03;22.67;;;;;;;;;;6309891;22;20399;-72
2022/12/03 13:01:03;;;;;;;40.83;23.60;;;;;;;;;;6309429;22;20432;-71
2022/12/03 13:03:33;;;;;;;29.80;16.13;;;;;;;;;;6282160;22;20429;-71
2022/12/03 13:05:59;;;;;;;38.73;19.80;;;;;;;;;;6309995;22;20412;-71
2022/12/03 13:08:25;;;;;;;28.23;16.03;;;;;;;;;;6309884;22;20454;-72
2022/12/03 13:10:52;;;;;;;31.57;20.30;;;;;;;;;;6309565;22;20179;-72
2022/12/03 13:13:21;;;;;;;38.90;24.53;;;;;;;;;;6310011;22;20155;-72
2022/12/03 13:15:49;;;;;;;35.40;18.40;;;;;;;;;;6310209;22;20363;-72
2022/12/03 13:18:18;;;;;;;23.23;13.27;;;;;;;;;;6312062;22;20411;-71
2022/12/03 13:20:44;;;;;;;38.93;25.13;;;;;;;;;;6285386;22;20387;-72
2022/12/03 13:23:33;;;;;;;42.70;26.47;;;;;;;;;;6312166;22;20363;-72
2022/12/03 13:26:01;;;;;;;41.83;26.47;;;;;;;;;;6296032;22;20586;-73
2022/12/03 13:28:28;;;;;;;25.73;14.70;;;;;;;;;;6311796;22;20508;-71
2022/12/03 13:30:54;;;;;;;40.67;24.27;;;;;;;;;;6311098;22;20383;-71
2022/12/03 13:33:27;;;;;;;31.07;20.00;;;;;;;;;;6309333;22;20470;-71
2022/12/03 13:35:54;;;;;;;36.20;20.70;;;;;;;;;;6309717;22;20350;-71
2022/12/03 13:38:22;;;;;;;38.53;22.83;;;;;;;;;;6281965;22;20522;-71
2022/12/03 13:40:53;;;;;;;37.63;19.97;;;;;;;;;;6309105;22;20399;-71
2022/12/03 13:43:19;;;;;;;36.00;21.40;;;;;;;;;;6309811;22;20794;-71
2022/12/03 13:45:49;;;;;;;39.77;22.33;;;;;;;;;;6309378;22;20366;-72
2022/12/03 13:48:22;;;;;;;41.13;23.53;;;;;;;;;;6309323;22;20159;-71
2022/12/03 13:50:48;;;;;;;36.57;21.30;;;;;;;;;;6281991;22;20888;-71
2022/12/03 13:53:23;;;;;;;40.60;20.60;;;;;;;;;;6281739;22;20396;-71
2022/12/03 13:56:09;;;;;;;35.90;21.43;;;;;;;;;;6281798;22;20477;-72
2022/12/03 13:58:35;;;;;;;41.37;24.63;;;;;;;;;;6288235;22;20476;-71
2022/12/03 14:01:01;;;;;;;42.67;23.93;;;;;;;;;;6281667;22;20486;-71
2022/12/03 14:03:27;;;;;;;35.60;21.63;;;;;;;;;;6309228;22;20149;-71
2022/12/03 14:05:53;;;;;;;33.17;18.13;;;;;;;;;;6309011;22;20167;-71
2022/12/03 14:08:19;;;;;;;35.93;19.77;;;;;;;;;;6281704;22;20179;-71
2022/12/03 14:10:45;;;;;;;33.77;20.33;;;;;;;;;;6309292;22;20614;-71
2022/12/03 14:13:11;;;;;;;35.77;21.13;;;;;;;;;;6309344;22;20148;-71
2022/12/03 14:15:36;;;;;;;36.90;17.43;;;;;;;;;;6309049;22;20551;-71
2022/12/03 14:18:02;;;;;;;36.93;20.83;;;;;;;;;;6281823;22;20215;-71
2022/12/03 14:20:28;;;;;;;32.10;17.70;;;;;;;;;;6309044;22;20145;-71
2022/12/03 14:22:54;;;;;;;30.00;14.97;;;;;;;;;;6309056;22;20145;-71
2022/12/03 14:25:20;;;;;;;32.87;18.73;;;;;;;;;;6309628;22;20171;-71
2022/12/03 14:27:46;;;;;;;28.87;14.30;;;;;;;;;;6281807;22;20160;-71
2022/12/03 14:30:13;;;;;;;37.77;23.07;;;;;;;;;;6309298;22;20914;-71
2022/12/03 14:32:39;;;;;;;34.10;20.73;;;;;;;;;;6308940;22;20168;-71
2022/12/03 14:35:05;;;;;;;32.23;18.23;;;;;;;;;;6308703;22;20421;-71
2022/12/03 14:37:32;;;;;;;40.70;22.20;;;;;;;;;;6313956;22;20183;-71
2022/12/03 14:39:58;;;;;;;33.47;19.60;;;;;;;;;;6308755;22;20356;-71